Terminal Aerodrome Forecast
Issued by NWS Caribou, ME

Home | Current Version | Previous Version | Text Only | Print | Product List | Glossary On
Versions: 1 2 3 4 5 6 7 8 9 10 11 12 13
000
FTUS41 KCAR 301700
TAFBGR
TAF
KBGR 301735Z 3018/3118 17011KT P6SM BKN250
     FM310800 19006KT P6SM BKN003
     FM311500 20009KT P6SM BKN008=

USA.gov is the U.S. government's official web portal to all federal, state and local government web resources and services.